createdAt,value
2018-10-07T00:00:18.154Z,15.67
2018-10-07T00:02:48.441Z,17.10
2018-10-07T00:05:18.743Z,15.77
2018-10-07T00:07:48.976Z,15.70
2018-10-07T00:10:19.616Z,15.63
2018-10-07T00:12:50.111Z,15.57
2018-10-07T00:15:20.403Z,15.50
2018-10-07T00:17:50.666Z,15.10
2018-10-07T00:20:20.910Z,15.30
2018-10-07T00:22:51.201Z,16.40
2018-10-07T00:25:21.532Z,15.67
2018-10-07T00:27:51.795Z,15.20
2018-10-07T00:30:22.118Z,15.97
2018-10-07T00:32:52.364Z,15.93
2018-10-07T00:35:22.664Z,15.33
2018-10-07T00:37:53.409Z,15.50
2018-10-07T00:40:23.686Z,16.03
2018-10-07T00:42:53.984Z,15.50
2018-10-07T00:45:24.262Z,15.73
2018-10-07T00:47:54.543Z,16.70
2018-10-07T00:50:24.840Z,16.40
2018-10-07T00:52:55.156Z,16.10
2018-10-07T00:55:25.438Z,18.00
2018-10-07T00:57:55.721Z,16.10
2018-10-07T01:00:25.975Z,17.20
2018-10-07T01:02:56.344Z,16.00
2018-10-07T01:05:26.649Z,15.23
2018-10-07T01:07:56.915Z,17.17
2018-10-07T01:10:27.216Z,15.03
2018-10-07T01:12:57.467Z,15.80
2018-10-07T01:15:27.731Z,17.40
2018-10-07T01:17:58.017Z,16.83
2018-10-07T01:20:28.353Z,16.30
2018-10-07T01:22:58.669Z,16.97
2018-10-07T01:25:28.989Z,16.67
2018-10-07T01:27:59.241Z,16.87
2018-10-07T01:30:29.513Z,16.87
2018-10-07T01:32:59.803Z,16.67
2018-10-07T01:35:30.112Z,15.60
2018-10-07T01:38:00.380Z,17.40
2018-10-07T01:40:30.710Z,17.30
2018-10-07T01:43:00.957Z,16.43
2018-10-07T01:45:31.248Z,16.10
2018-10-07T01:48:01.545Z,17.63
2018-10-07T01:50:31.848Z,17.20
2018-10-07T01:53:02.081Z,17.67
2018-10-07T01:55:32.355Z,16.17
2018-10-07T01:58:02.613Z,16.27
2018-10-07T02:00:32.936Z,15.50
2018-10-07T02:03:03.234Z,15.93
2018-10-07T02:05:33.464Z,15.13
2018-10-07T02:08:03.713Z,15.30
2018-10-07T02:10:34.008Z,15.80
2018-10-07T02:13:04.343Z,16.50
2018-10-07T02:15:34.678Z,15.83
2018-10-07T02:18:04.957Z,16.23
2018-10-07T02:20:35.252Z,16.07
2018-10-07T02:23:05.558Z,17.17
2018-10-07T02:25:35.868Z,15.60
2018-10-07T02:28:06.144Z,16.33
2018-10-07T02:30:36.416Z,16.37
2018-10-07T02:33:06.778Z,16.30
2018-10-07T02:35:37.104Z,15.40
2018-10-07T02:38:07.432Z,15.80
2018-10-07T02:40:38.772Z,15.47
2018-10-07T02:43:09.048Z,15.50
2018-10-07T02:45:39.800Z,16.67
2018-10-07T02:48:10.071Z,15.30
2018-10-07T02:50:41.130Z,17.03
2018-10-07T02:53:11.420Z,16.10
2018-10-07T02:55:41.692Z,15.97
2018-10-07T02:58:11.987Z,15.53
2018-10-07T03:00:42.305Z,15.83
2018-10-07T03:03:12.614Z,17.07
2018-10-07T03:05:42.868Z,15.23
2018-10-07T03:08:13.192Z,15.20
2018-10-07T03:10:43.494Z,15.27
2018-10-07T03:13:13.816Z,16.17
2018-10-07T03:15:44.136Z,16.53
2018-10-07T03:18:14.460Z,16.37
2018-10-07T03:20:44.792Z,15.23
2018-10-07T03:23:15.105Z,16.27
2018-10-07T03:25:45.395Z,16.10
2018-10-07T03:28:15.709Z,16.30
2018-10-07T03:30:45.979Z,17.20
2018-10-07T03:33:16.292Z,15.50
2018-10-07T03:35:46.540Z,15.60
2018-10-07T03:38:16.883Z,14.83
2018-10-07T03:40:47.192Z,15.70
2018-10-07T03:43:17.529Z,15.60
2018-10-07T03:45:47.779Z,16.33
2018-10-07T03:48:18.078Z,14.77
2018-10-07T03:50:48.359Z,15.23
2018-10-07T03:53:18.785Z,15.40
2018-10-07T03:55:49.256Z,15.60
2018-10-07T03:58:19.590Z,16.33
2018-10-07T04:00:49.964Z,15.97
2018-10-07T04:03:20.287Z,16.17
2018-10-07T04:05:50.615Z,15.90
2018-10-07T04:08:21.004Z,16.10
2018-10-07T04:10:51.291Z,17.23
2018-10-07T04:13:21.596Z,17.07
2018-10-07T04:15:51.934Z,17.53
2018-10-07T04:18:22.188Z,16.20
2018-10-07T04:20:52.524Z,16.50
2018-10-07T04:23:22.769Z,17.00
2018-10-07T04:25:53.046Z,16.97
2018-10-07T04:28:23.306Z,17.00
2018-10-07T04:30:53.580Z,16.93
2018-10-07T04:33:23.867Z,16.90
2018-10-07T04:35:54.140Z,16.60
2018-10-07T04:38:24.437Z,16.80
2018-10-07T04:40:54.672Z,16.17
2018-10-07T04:43:24.970Z,16.50
2018-10-07T04:45:55.229Z,15.90
2018-10-07T04:48:25.521Z,16.90
2018-10-07T04:50:55.777Z,18.73
2018-10-07T04:53:26.324Z,17.60
2018-10-07T04:55:56.610Z,16.90
2018-10-07T04:58:26.870Z,17.30
2018-10-07T05:00:57.180Z,17.67
2018-10-07T05:03:27.484Z,22.17
2018-10-07T05:05:57.802Z,23.40
2018-10-07T05:08:28.263Z,21.63
2018-10-07T05:11:01.788Z,18.27
2018-10-07T05:13:56.592Z,21.27
2018-10-07T05:16:38.503Z,18.83
2018-10-07T05:19:08.902Z,18.03
2018-10-07T05:21:39.172Z,23.03
2018-10-07T05:24:09.517Z,34.47
2018-10-07T05:26:39.805Z,23.73
2018-10-07T05:29:10.122Z,33.83
2018-10-07T05:31:40.461Z,22.13
2018-10-07T05:34:10.875Z,20.40
2018-10-07T05:36:41.134Z,18.57
2018-10-07T05:39:12.752Z,17.70
2018-10-07T05:41:43.013Z,17.10
2018-10-07T05:44:13.317Z,17.57
2018-10-07T05:46:43.568Z,17.07
2018-10-07T05:49:13.844Z,19.30
2018-10-07T05:51:44.104Z,18.33
2018-10-07T05:54:14.369Z,18.70
2018-10-07T05:56:44.692Z,17.93
2018-10-07T05:59:15.307Z,18.30
2018-10-07T06:01:46.213Z,18.53
2018-10-07T06:04:30.157Z,19.80
2018-10-07T06:07:02.986Z,17.83
2018-10-07T06:09:36.137Z,19.47
2018-10-07T06:12:06.623Z,20.10
2018-10-07T06:14:53.680Z,18.57
2018-10-07T06:17:23.912Z,18.80
2018-10-07T06:19:54.205Z,19.20
2018-10-07T06:22:25.121Z,19.10
2018-10-07T06:24:55.509Z,23.37
2018-10-07T06:27:25.900Z,23.80
2018-10-07T06:29:56.229Z,20.47
2018-10-07T06:32:26.476Z,19.40
2018-10-07T06:34:56.779Z,38.67
2018-10-07T06:37:27.060Z,31.50
2018-10-07T06:39:57.452Z,19.67
2018-10-07T06:42:27.740Z,18.60
2018-10-07T06:44:58.104Z,18.70
2018-10-07T06:47:28.437Z,18.97
2018-10-07T06:49:58.718Z,18.80
2018-10-07T06:52:29.057Z,18.23
2018-10-07T06:54:59.389Z,18.50
2018-10-07T06:57:30.031Z,18.50
2018-10-07T07:00:00.772Z,18.57
2018-10-07T07:02:31.060Z,18.60
2018-10-07T07:05:01.321Z,19.13
2018-10-07T07:07:31.654Z,18.80
2018-10-07T07:10:01.980Z,19.10
2018-10-07T07:12:32.223Z,18.87
2018-10-07T07:15:02.508Z,18.30
2018-10-07T07:17:32.848Z,18.70
2018-10-07T07:20:03.191Z,19.93
2018-10-07T07:22:33.408Z,19.10
2018-10-07T07:25:03.726Z,19.47
2018-10-07T07:27:33.979Z,20.20
2018-10-07T07:30:04.359Z,19.17
2018-10-07T07:32:34.623Z,20.33
2018-10-07T07:35:05.001Z,20.30
2018-10-07T07:37:35.264Z,22.17
2018-10-07T07:40:05.683Z,19.90
2018-10-07T07:42:35.952Z,20.37
2018-10-07T07:45:06.284Z,22.00
2018-10-07T07:47:36.540Z,19.60
2018-10-07T07:50:06.873Z,19.97
2018-10-07T07:52:37.132Z,21.50
2018-10-07T07:55:07.907Z,20.40
2018-10-07T07:57:38.224Z,20.60
2018-10-07T08:00:08.537Z,20.70
2018-10-07T08:02:38.799Z,21.07
2018-10-07T08:05:09.116Z,20.53
2018-10-07T08:07:39.428Z,21.43
2018-10-07T08:10:09.768Z,19.70
2018-10-07T08:12:40.682Z,19.60
2018-10-07T08:15:11.006Z,19.90
2018-10-07T08:17:41.281Z,19.47
2018-10-07T08:20:11.568Z,19.73
2018-10-07T08:22:41.856Z,18.43
2018-10-07T08:25:12.186Z,18.97
2018-10-07T08:27:42.497Z,18.57
2018-10-07T08:30:12.783Z,18.47
2018-10-07T08:32:43.088Z,19.43
2018-10-07T08:35:13.475Z,19.37
2018-10-07T08:37:43.717Z,18.90
2018-10-07T08:40:13.961Z,18.10
2018-10-07T08:42:44.270Z,19.57
2018-10-07T08:45:14.580Z,18.83
2018-10-07T08:47:44.884Z,19.90
2018-10-07T08:50:15.192Z,19.47
2018-10-07T08:52:45.575Z,19.97
2018-10-07T08:55:15.881Z,21.30
2018-10-07T08:57:46.222Z,19.60
2018-10-07T09:00:16.488Z,21.60
2018-10-07T09:02:47.097Z,20.90
2018-10-07T09:05:17.376Z,19.80
2018-10-07T09:07:47.699Z,20.60
2018-10-07T09:10:18.013Z,20.37
2018-10-07T09:12:48.289Z,21.00
2018-10-07T09:15:18.573Z,20.97
2018-10-07T09:17:48.912Z,20.27
2018-10-07T09:20:19.257Z,20.80
2018-10-07T09:22:49.554Z,19.90
2018-10-07T09:25:19.818Z,21.60
2018-10-07T09:27:52.033Z,19.83
2018-10-07T09:30:22.366Z,20.70
2018-10-07T09:32:52.767Z,22.07
2018-10-07T09:35:22.954Z,22.30
2018-10-07T09:37:53.261Z,21.47
2018-10-07T09:40:23.543Z,21.17
2018-10-07T09:42:53.846Z,20.60
2018-10-07T09:45:24.214Z,20.23
2018-10-07T09:47:54.540Z,20.53
2018-10-07T09:50:24.821Z,20.60
2018-10-07T09:52:55.115Z,24.03
2018-10-07T09:55:25.431Z,33.67
2018-10-07T09:57:55.854Z,33.70
2018-10-07T10:00:31.253Z,24.93
2018-10-07T10:03:01.532Z,23.17
2018-10-07T10:05:31.860Z,22.70
2018-10-07T10:08:02.159Z,21.30
2018-10-07T10:10:32.516Z,25.00
2018-10-07T10:13:02.799Z,20.07
2018-10-07T10:15:33.150Z,20.00
2018-10-07T10:18:07.245Z,21.37
2018-10-07T10:21:01.677Z,22.27
2018-10-07T10:24:50.285Z,22.73
2018-10-07T10:27:30.387Z,22.30
2018-10-07T10:30:12.511Z,23.27
2018-10-07T10:33:00.987Z,23.30
2018-10-07T10:36:49.694Z,23.30
2018-10-07T10:39:32.400Z,24.90
2018-10-07T10:42:09.592Z,23.23
2018-10-07T10:44:49.385Z,24.43
2018-10-07T10:47:43.476Z,23.93
2018-10-07T10:50:34.089Z,24.07
2018-10-07T10:53:15.376Z,24.00
2018-10-07T10:56:16.799Z,23.33
2018-10-07T11:01:15.225Z,23.83
2018-10-07T11:03:56.341Z,75.57
2018-10-07T11:06:45.847Z,44.83
2018-10-07T11:10:10.633Z,28.57
2018-10-07T11:12:53.954Z,24.80
2018-10-07T11:15:32.002Z,25.70
2018-10-07T11:18:15.200Z,25.70
2018-10-07T11:21:32.889Z,24.80
2018-10-07T11:24:13.503Z,25.73
2018-10-07T11:29:00.579Z,25.47
2018-10-07T11:32:21.119Z,25.23
2018-10-07T11:37:15.422Z,25.77
2018-10-07T11:40:02.049Z,25.93
2018-10-07T11:43:42.057Z,27.80
2018-10-07T11:48:31.367Z,27.00
2018-10-07T11:51:24.149Z,28.30
2018-10-07T11:53:58.912Z,26.57
2018-10-07T11:56:29.205Z,26.53
2018-10-07T11:58:59.509Z,25.70
2018-10-07T12:01:29.748Z,26.10
2018-10-07T12:04:00.081Z,27.33
2018-10-07T12:06:30.397Z,26.43
2018-10-07T12:09:00.696Z,27.57
2018-10-07T12:11:30.986Z,26.33
2018-10-07T12:14:01.272Z,25.60
2018-10-07T12:16:31.683Z,33.27
2018-10-07T12:19:01.879Z,27.97
2018-10-07T12:21:32.166Z,25.80
2018-10-07T12:24:02.549Z,25.73
2018-10-07T12:26:32.835Z,26.30
2018-10-07T12:29:03.368Z,28.20
2018-10-07T12:31:33.581Z,27.27
2018-10-07T12:34:03.919Z,26.30
2018-10-07T12:36:34.277Z,28.20
2018-10-07T12:39:05.197Z,26.90
2018-10-07T12:41:35.491Z,26.73
2018-10-07T12:44:05.767Z,27.20
2018-10-07T12:46:36.082Z,28.10
2018-10-07T12:49:06.376Z,28.03
2018-10-07T12:51:36.625Z,27.10
2018-10-07T12:54:06.954Z,26.97
2018-10-07T12:56:37.224Z,26.90
2018-10-07T12:59:08.196Z,27.50
2018-10-07T13:01:38.502Z,27.37
2018-10-07T13:04:08.841Z,25.87
2018-10-07T13:06:39.094Z,28.00
2018-10-07T13:09:12.262Z,27.63
2018-10-07T13:11:42.548Z,27.03
2018-10-07T13:14:12.857Z,27.67
2018-10-07T13:16:43.108Z,26.73
2018-10-07T13:19:13.428Z,27.23
2018-10-07T13:21:43.667Z,27.77
2018-10-07T13:24:13.962Z,28.80
2018-10-07T13:26:44.276Z,26.53
2018-10-07T13:29:14.568Z,27.13
2018-10-07T13:31:44.856Z,28.20
2018-10-07T13:34:15.136Z,26.90
2018-10-07T13:36:45.480Z,28.43
2018-10-07T13:39:15.798Z,27.23
2018-10-07T13:41:46.121Z,27.57
2018-10-07T13:44:16.397Z,27.60
2018-10-07T13:46:46.757Z,26.97
2018-10-07T13:49:17.128Z,27.50
2018-10-07T13:51:48.292Z,26.30
2018-10-07T13:54:18.649Z,27.60
2018-10-07T13:56:48.960Z,28.33
2018-10-07T13:59:19.261Z,26.80
2018-10-07T14:01:49.520Z,26.30
2018-10-07T14:04:19.977Z,27.47
2018-10-07T14:06:50.306Z,27.13
2018-10-07T14:09:20.628Z,26.80
2018-10-07T14:11:50.925Z,27.20
2018-10-07T14:14:21.230Z,26.27
2018-10-07T14:16:51.517Z,26.67
2018-10-07T14:19:21.844Z,27.60
2018-10-07T14:21:52.220Z,26.60
2018-10-07T14:24:22.598Z,27.80
2018-10-07T14:26:52.930Z,27.33
2018-10-07T14:29:23.221Z,28.30
2018-10-07T14:31:53.516Z,28.90
2018-10-07T14:34:23.803Z,29.13
2018-10-07T14:36:54.117Z,28.57
2018-10-07T14:39:24.427Z,29.00
2018-10-07T14:41:54.732Z,28.17
2018-10-07T14:44:25.051Z,30.00
2018-10-07T14:46:55.344Z,29.23
2018-10-07T14:49:25.745Z,30.80
2018-10-07T14:51:55.987Z,32.30
2018-10-07T14:54:26.313Z,32.40
2018-10-07T14:56:56.620Z,34.57
2018-10-07T14:59:26.926Z,36.13
2018-10-07T15:01:57.227Z,35.23
2018-10-07T15:04:27.486Z,35.07
2018-10-07T15:06:57.812Z,32.97
2018-10-07T15:09:28.190Z,35.00
2018-10-07T15:11:58.458Z,35.00
2018-10-07T15:14:28.728Z,34.90
2018-10-07T15:16:59.073Z,36.17
2018-10-07T15:19:29.369Z,37.07
2018-10-07T15:21:59.669Z,38.27
2018-10-07T15:24:29.981Z,38.80
2018-10-07T15:27:00.293Z,41.13
2018-10-07T15:29:30.735Z,40.07
2018-10-07T15:32:00.932Z,39.43
2018-10-07T15:34:31.238Z,41.07
2018-10-07T15:37:01.622Z,39.93
2018-10-07T15:39:31.901Z,40.67
2018-10-07T15:42:02.283Z,39.07
2018-10-07T15:44:32.572Z,37.63
2018-10-07T15:47:02.905Z,39.70
2018-10-07T15:49:33.240Z,40.70
2018-10-07T15:52:03.564Z,42.57
2018-10-07T15:54:33.916Z,41.53
2018-10-07T15:57:04.225Z,43.43
2018-10-07T15:59:34.488Z,40.63
2018-10-07T16:02:04.812Z,40.50
2018-10-07T16:04:35.092Z,40.00
2018-10-07T16:07:05.525Z,39.80
2018-10-07T16:09:35.847Z,40.73
2018-10-07T16:12:06.196Z,41.20
2018-10-07T16:14:39.322Z,40.40
2018-10-07T16:17:21.717Z,39.40
2018-10-07T16:19:54.237Z,39.30
2018-10-07T16:22:25.324Z,39.17
2018-10-07T16:24:55.596Z,39.20
2018-10-07T16:27:25.899Z,42.60
2018-10-07T16:29:56.296Z,40.30
2018-10-07T16:32:26.568Z,39.10
2018-10-07T16:34:56.913Z,37.20
2018-10-07T16:37:27.250Z,37.57
2018-10-07T16:39:57.553Z,38.00
2018-10-07T16:42:27.861Z,57.83
2018-10-07T16:44:58.172Z,53.27
2018-10-07T16:47:28.576Z,48.73
2018-10-07T16:49:58.985Z,51.70
2018-10-07T16:52:29.331Z,46.87
2018-10-07T16:54:59.625Z,43.40
2018-10-07T16:57:29.964Z,44.77
2018-10-07T17:00:00.215Z,44.17
2018-10-07T17:02:30.481Z,46.60
2018-10-07T17:05:00.820Z,43.60
2018-10-07T17:07:31.239Z,45.30
2018-10-07T17:10:01.518Z,47.67
2018-10-07T17:12:31.833Z,226.77
2018-10-07T17:15:02.144Z,53.50
2018-10-07T17:17:33.185Z,42.17
2018-10-07T17:20:03.924Z,40.60
2018-10-07T17:22:34.488Z,40.50
2018-10-07T17:25:04.816Z,40.87
2018-10-07T17:27:35.312Z,41.53
2018-10-07T17:30:05.716Z,41.27
2018-10-07T17:32:35.987Z,43.70
2018-10-07T17:35:06.343Z,41.57
2018-10-07T17:37:36.637Z,41.87
2018-10-07T17:40:07.255Z,44.00
2018-10-07T17:42:37.537Z,41.47
2018-10-07T17:45:07.824Z,43.20
2018-10-07T17:47:38.140Z,41.23
2018-10-07T17:50:08.463Z,43.13
2018-10-07T17:52:38.797Z,41.53
2018-10-07T17:55:09.396Z,41.30
2018-10-07T17:57:39.672Z,42.17
2018-10-07T18:00:10.064Z,40.60
2018-10-07T18:02:40.424Z,43.20
2018-10-07T18:05:10.761Z,39.10
2018-10-07T18:07:41.163Z,40.57
2018-10-07T18:10:11.552Z,39.67
2018-10-07T18:12:41.971Z,40.70
2018-10-07T18:15:12.322Z,40.53
2018-10-07T18:17:42.836Z,40.90
2018-10-07T18:20:13.470Z,41.80
2018-10-07T18:22:43.877Z,41.47
2018-10-07T18:25:14.187Z,41.50
2018-10-07T18:27:44.530Z,41.70
2018-10-07T18:30:14.986Z,42.20
2018-10-07T18:32:45.367Z,44.20
2018-10-07T18:35:15.782Z,41.50
2018-10-07T18:37:46.148Z,43.40
2018-10-07T18:40:16.675Z,42.90
2018-10-07T18:42:46.950Z,39.50
2018-10-07T18:45:17.358Z,41.07
2018-10-07T18:47:47.795Z,42.20
2018-10-07T18:50:18.282Z,42.10
2018-10-07T18:52:48.969Z,42.40
2018-10-07T18:55:19.398Z,39.47
2018-10-07T18:57:49.825Z,42.77
2018-10-07T19:00:20.269Z,41.50
2018-10-07T19:02:51.192Z,42.80
2018-10-07T19:05:21.576Z,46.20
2018-10-07T19:07:52.220Z,44.60
2018-10-07T19:10:22.669Z,41.70
2018-10-07T19:12:53.437Z,44.27
2018-10-07T19:15:23.909Z,41.83
2018-10-07T19:17:54.704Z,41.47
2018-10-07T19:20:25.398Z,42.53
2018-10-07T19:22:56.374Z,41.80
2018-10-07T19:25:26.796Z,41.83
2018-10-07T19:27:57.254Z,42.53
2018-10-07T19:30:27.731Z,43.07
2018-10-07T19:32:58.589Z,42.40
2018-10-07T19:35:29.105Z,41.87
2018-10-07T19:37:59.512Z,40.50
2018-10-07T19:40:29.892Z,40.63
2018-10-07T19:43:00.360Z,42.60
2018-10-07T19:45:30.708Z,43.43
2018-10-07T19:48:01.417Z,43.30
2018-10-07T19:50:31.781Z,41.00
2018-10-07T19:53:02.113Z,42.83
2018-10-07T19:55:32.450Z,39.30
2018-10-07T19:58:02.770Z,40.77
2018-10-07T20:00:33.101Z,41.93
2018-10-07T20:03:03.530Z,43.20
2018-10-07T20:05:33.854Z,42.20
2018-10-07T20:08:04.148Z,42.83
2018-10-07T20:10:34.469Z,41.80
2018-10-07T20:13:04.821Z,43.73
2018-10-07T20:15:35.149Z,44.57
2018-10-07T20:18:05.981Z,41.83
2018-10-07T20:20:36.430Z,43.63
2018-10-07T20:23:07.176Z,44.27
2018-10-07T20:25:37.513Z,44.03
2018-10-07T20:28:07.917Z,43.50
2018-10-07T20:30:38.201Z,43.60
2018-10-07T20:33:08.715Z,44.03
2018-10-07T20:35:39.000Z,44.53
2018-10-07T20:38:09.356Z,45.20
2018-10-07T20:40:39.799Z,45.73
2018-10-07T20:43:09.998Z,44.23
2018-10-07T20:45:40.258Z,46.23
2018-10-07T20:48:10.865Z,46.03
2018-10-07T20:50:41.157Z,43.97
2018-10-07T20:53:11.469Z,42.60
2018-10-07T20:55:41.762Z,44.70
2018-10-07T20:58:12.369Z,44.97
2018-10-07T21:00:42.708Z,43.80
2018-10-07T21:03:13.169Z,46.40
2018-10-07T21:05:43.434Z,46.07
2018-10-07T21:08:13.810Z,44.83
2018-10-07T21:10:44.168Z,45.50
2018-10-07T21:13:14.487Z,45.23
2018-10-07T21:15:44.846Z,47.37
2018-10-07T21:18:15.135Z,46.50
2018-10-07T21:20:45.476Z,48.00
2018-10-07T21:23:15.783Z,48.20
2018-10-07T21:25:46.147Z,46.27
2018-10-07T21:28:16.436Z,47.07
2018-10-07T21:30:46.741Z,47.80
2018-10-07T21:33:17.046Z,46.90
2018-10-07T21:35:47.352Z,48.17
2018-10-07T21:38:17.636Z,46.63
2018-10-07T21:40:47.952Z,45.87
2018-10-07T21:43:18.237Z,45.23
2018-10-07T21:45:48.592Z,44.90
2018-10-07T21:48:19.345Z,45.93
2018-10-07T21:50:49.665Z,44.40
2018-10-07T21:53:19.976Z,43.97
2018-10-07T21:55:50.272Z,45.70
2018-10-07T21:58:20.576Z,45.83
2018-10-07T22:00:50.924Z,45.50
2018-10-07T22:03:21.241Z,44.43
2018-10-07T22:05:51.666Z,42.57
2018-10-07T22:08:22.020Z,42.90
2018-10-07T22:10:52.382Z,42.43
2018-10-07T22:13:22.759Z,43.67
2018-10-07T22:15:53.120Z,44.60
2018-10-07T22:18:23.483Z,42.53
2018-10-07T22:20:53.798Z,42.63
2018-10-07T22:23:24.109Z,44.00
2018-10-07T22:25:54.484Z,42.70
2018-10-07T22:28:24.910Z,44.60
2018-10-07T22:33:30.786Z,44.30
2018-10-07T22:36:01.113Z,43.17
2018-10-07T22:38:31.486Z,43.50
2018-10-07T22:41:01.822Z,43.93
2018-10-07T22:43:32.155Z,41.57
2018-10-07T22:46:02.455Z,43.23
2018-10-07T22:48:33.103Z,43.23
2018-10-07T22:51:03.398Z,44.00
2018-10-07T22:53:33.713Z,43.00
2018-10-07T22:56:04.028Z,43.37
2018-10-07T22:58:34.344Z,44.97
2018-10-07T23:01:04.649Z,45.67
2018-10-07T23:03:35.021Z,47.03
2018-10-07T23:06:05.441Z,44.43
2018-10-07T23:08:35.822Z,44.00
2018-10-07T23:11:06.392Z,44.63
2018-10-07T23:13:36.742Z,43.13
2018-10-07T23:16:07.137Z,45.27
2018-10-07T23:18:37.506Z,43.80
2018-10-07T23:21:07.861Z,45.87
2018-10-07T23:23:38.211Z,47.83
2018-10-07T23:26:08.577Z,44.97
2018-10-07T23:28:39.002Z,46.40
2018-10-07T23:31:09.326Z,44.80
2018-10-07T23:33:39.735Z,47.30
2018-10-07T23:36:10.147Z,46.47
2018-10-07T23:38:40.573Z,45.20
2018-10-07T23:41:10.981Z,45.00
2018-10-07T23:43:41.301Z,45.37
2018-10-07T23:46:11.673Z,45.90
2018-10-07T23:48:42.081Z,44.57
2018-10-07T23:51:12.494Z,45.17
2018-10-07T23:53:42.802Z,45.03
2018-10-07T23:56:13.170Z,42.97
2018-10-07T23:58:43.502Z,44.43
